Station History


Daily Summary for February 10, 2012 Units:  English    Metric   Both
« Previous Day
Next Day »
Daily Weekly Monthly Yearly Custom
  High: Low: Average:
Temperature: 77.1 °F 41.0 °F 55.8 °F
Dew Point: 48.4 °F 38.3 °F 43.3 °F
Humidity: 95% 31% 68%
Wind Speed: 4.6mph 0.0mph 1.7mph
Wind Gust: 4.6mph - -
Wind- - WSW
Pressure: 30.20 in 30.00 in -
Precipitation: 0.00 in    
Historical Graphs
 
 
Tabular Data for February 10, 2012
Time Temperature Dew Point Pressure Wind Wind Speed Wind Gust Humidity Rainfall Rate (Hourly)
00:04 48.1 °F 44.7 °F 30.14 in Calm     88% 0.00 in
00:09 47.9 °F 44.5 °F 30.14 in Calm     88% 0.00 in
00:14 47.8 °F 44.4 °F 30.14 in Calm     88% 0.00 in
00:19 47.6 °F 44.2 °F 30.14 in Calm     88% 0.00 in
00:24 47.5 °F 44.1 °F 30.14 in Calm     88% 0.00 in
00:29 47.4 °F 44.0 °F 30.15 in Calm     88% 0.00 in
00:34 47.5 °F 44.4 °F 30.15 in Calm     89% 0.00 in
00:39 47.5 °F 44.1 °F 30.15 in Calm     88% 0.00 in
00:44 47.3 °F 43.9 °F 30.15 in Calm     88% 0.00 in
00:49 47.5 °F 44.1 °F 30.16 in Calm     88% 0.00 in
00:54 47.5 °F 43.8 °F 30.16 in Calm     87% 0.00 in
00:59 47.3 °F 43.3 °F 30.16 in Calm     86% 0.00 in
01:04 46.9 °F 42.9 °F 30.16 in Calm     86% 0.00 in
01:09 46.6 °F 42.9 °F 30.16 in Calm     87% 0.00 in
01:14 46.5 °F 43.1 °F 30.16 in Calm     88% 0.00 in
01:19 46.1 °F 42.7 °F 30.16 in Calm     88% 0.00 in
01:24 45.8 °F 42.2 °F 30.17 in Calm     87% 0.00 in
01:29 45.8 °F 42.7 °F 30.17 in Calm     89% 0.00 in
01:34 45.8 °F 42.7 °F 30.17 in Calm     89% 0.00 in
01:39 45.7 °F 42.9 °F 30.17 in Calm     90% 0.00 in
01:44 45.7 °F 42.6 °F 30.17 in Calm     89% 0.00 in
01:49 45.5 °F 42.4 °F 30.18 in Calm     89% 0.00 in
01:54 45.5 °F 42.7 °F 30.18 in Calm     90% 0.00 in
01:59 45.5 °F 42.7 °F 30.18 in Calm     90% 0.00 in
02:04 45.4 °F 42.6 °F 30.18 in Calm     90% 0.00 in
02:09 45.2 °F 42.4 °F 30.18 in Calm     90% 0.00 in
02:14 45.1 °F 42.3 °F 30.18 in Calm     90% 0.00 in
02:19 44.8 °F 41.8 °F 30.18 in Calm     89% 0.00 in
02:24 44.5 °F 41.7 °F 30.18 in Calm     90% 0.00 in
02:29 44.3 °F 41.6 °F 30.18 in Calm     90% 0.00 in
02:34 44.2 °F 41.7 °F 30.18 in Calm     91% 0.00 in
02:39 44.0 °F 41.3 °F 30.18 in Calm     90% 0.00 in
02:44 43.7 °F 41.0 °F 30.18 in Calm     90% 0.00 in
02:49 43.5 °F 40.8 °F 30.18 in Calm     90% 0.00 in
02:54 43.2 °F 40.5 °F 30.18 in Calm     90% 0.00 in
02:59 42.9 °F 40.2 °F 30.18 in Calm     90% 0.00 in
03:04 42.7 °F 40.0 °F 30.18 in Calm     90% 0.00 in
03:09 42.5 °F 40.1 °F 30.18 in Calm     91% 0.00 in
03:14 42.3 °F 39.9 °F 30.18 in Calm     91% 0.00 in
03:19 42.2 °F 39.8 °F 30.18 in Calm     91% 0.00 in
03:24 42.0 °F 39.6 °F 30.18 in Calm     91% 0.00 in
03:29 41.9 °F 39.5 °F 30.18 in Calm     91% 0.00 in
03:34 41.8 °F 39.6 °F 30.18 in Calm     92% 0.00 in
03:39 41.6 °F 39.4 °F 30.17 in Calm     92% 0.00 in
03:44 41.5 °F 39.3 °F 30.17 in Calm     92% 0.00 in
03:49 41.5 °F 39.6 °F 30.17 in Calm     93% 0.00 in
03:54 41.5 °F 39.6 °F 30.17 in Calm     93% 0.00 in
03:59 41.3 °F 39.2 °F 30.17 in Calm     92% 0.00 in
04:04 41.2 °F 39.1 °F 30.17 in Calm     92% 0.00 in
04:09 41.2 °F 39.3 °F 30.17 in Calm     93% 0.00 in
04:14 41.1 °F 39.2 °F 30.16 in Calm     93% 0.00 in
04:19 41.2 °F 39.3 °F 30.16 in Calm     93% 0.00 in
04:24 41.2 °F 39.3 °F 30.16 in Calm     93% 0.00 in
04:29 41.3 °F 39.7 °F 30.16 in Calm     94% 0.00 in
04:34 41.5 °F 39.9 °F 30.16 in Calm     94% 0.00 in
04:40 41.6 °F 40.0 °F 30.16 in Calm     94% 0.00 in
04:44 41.9 °F 40.6 °F 30.16 in Calm     95% 0.00 in
04:50 42.3 °F 41.0 °F 30.16 in Calm     95% 0.00 in
04:55 42.5 °F 41.2 °F 30.16 in Calm     95% 0.00 in
05:00 42.6 °F 41.3 °F 30.16 in Calm     95% 0.00 in
05:05 42.6 °F 41.0 °F 30.15 in Calm     94% 0.00 in
05:10 42.6 °F 41.0 °F 30.15 in Calm     94% 0.00 in
05:15 42.5 °F 40.9 °F 30.15 in Calm     94% 0.00 in
05:20 42.4 °F 40.8 °F 30.15 in Calm     94% 0.00 in
05:25 42.2 °F 40.3 °F 30.15 in Calm     93% 0.00 in
05:30 42.0 °F 40.1 °F 30.15 in Calm     93% 0.00 in
05:35 41.8 °F 39.9 °F 30.15 in Calm     93% 0.00 in
05:40 41.8 °F 39.9 °F 30.16 in Calm     93% 0.00 in
05:45 41.6 °F 39.7 °F 30.15 in Calm     93% 0.00 in
05:50 41.4 °F 39.5 °F 30.16 in Calm     93% 0.00 in
05:55 41.6 °F 40.0 °F 30.16 in Calm     94% 0.00 in
06:00 41.8 °F 40.2 °F 30.16 in Calm     94% 0.00 in
06:05 41.9 °F 40.0 °F 30.17 in Calm     93% 0.00 in
06:10 41.9 °F 40.0 °F 30.17 in Calm     93% 0.00 in
06:15 41.9 °F 39.7 °F 30.17 in Calm     92% 0.00 in
06:20 41.9 °F 39.7 °F 30.17 in Calm     92% 0.00 in
06:25 41.9 °F 39.5 °F 30.17 in Calm     91% 0.00 in
06:30 41.7 °F 39.0 °F 30.17 in Calm     90% 0.00 in
06:35 41.5 °F 38.8 °F 30.17 in Calm     90% 0.00 in
06:40 41.3 °F 38.9 °F 30.17 in Calm     91% 0.00 in
06:45 41.1 °F 38.4 °F 30.18 in Calm     90% 0.00 in
06:50 41.0 °F 38.6 °F 30.18 in Calm     91% 0.00 in
06:55 41.3 °F 38.9 °F 30.18 in Calm     91% 0.00 in
07:00 41.3 °F 38.9 °F 30.19 in Calm     91% 0.00 in
07:05 41.3 °F 38.9 °F 30.19 in Calm     91% 0.00 in
07:10 41.2 °F 38.5 °F 30.19 in Calm     90% 0.00 in
07:15 41.0 °F 38.3 °F 30.20 in Calm     90% 0.00 in
07:20 41.1 °F 38.7 °F 30.20 in Calm     91% 0.00 in
07:25 41.1 °F 38.7 °F 30.20 in Calm     91% 0.00 in
07:30 41.2 °F 39.1 °F 30.20 in Calm     92% 0.00 in
07:35 41.4 °F 39.3 °F 30.20 in Calm     92% 0.00 in
07:40 41.7 °F 39.5 °F 30.20 in Calm     92% 0.00 in
07:45 42.3 °F 40.1 °F 30.20 in Calm     92% 0.00 in
07:46 42.4 °F 40.2 °F 30.20 in Calm     92% 0.00 in
07:51 42.8 °F 40.4 °F 30.20 in Calm     91% 0.00 in
07:56 43.5 °F 41.0 °F 30.20 in Calm     91% 0.00 in
08:01 44.0 °F 41.3 °F 30.20 in Calm     90% 0.00 in
08:06 44.6 °F 41.3 °F 30.20 in Calm     88% 0.00 in
08:11 45.2 °F 41.6 °F 30.20 in Calm     87% 0.00 in
08:16 45.8 °F 41.9 °F 30.19 in Calm     86% 0.00 in
08:21 46.5 °F 42.5 °F 30.19 in Calm     86% 0.00 in
08:26 47.2 °F 42.9 °F 30.19 in Calm     85% 0.00 in
08:31 47.6 °F 43.0 °F 30.19 in North 1.1 mph   84% 0.00 in
08:36 48.1 °F 43.2 °F 30.19 in North 1.1 mph 1.1 mph 83% 0.00 in
08:41 48.5 °F 42.9 °F 30.19 in North 1.1 mph 1.1 mph 81% 0.00 in
08:46 49.1 °F 43.5 °F 30.19 in NNW 1.1 mph   81% 0.00 in
08:51 49.6 °F 43.7 °F 30.19 in Calm     80% 0.00 in
08:56 50.1 °F 43.8 °F 30.19 in Calm     79% 0.00 in
09:01 50.6 °F 44.3 °F 30.19 in Calm     79% 0.00 in
09:06 51.3 °F 44.7 °F 30.19 in Calm     78% 0.00 in
09:11 52.0 °F 45.0 °F 30.20 in Calm     77% 0.00 in
09:16 52.8 °F 45.4 °F 30.20 in Calm     76% 0.00 in
09:21 53.6 °F 45.2 °F 30.20 in Calm     73% 0.00 in
09:26 54.4 °F 45.2 °F 30.20 in Calm     71% 0.00 in
09:31 55.1 °F 45.5 °F 30.20 in Calm     70% 0.00 in
09:36 55.8 °F 45.8 °F 30.20 in Calm     69% 0.00 in
09:41 56.5 °F 46.1 °F 30.20 in ENE 1.1 mph   68% 0.00 in
09:46 57.0 °F 46.1 °F 30.20 in Calm     67% 0.00 in
09:51 57.5 °F 45.8 °F 30.20 in Calm   0.1 mph 65% 0.00 in
09:56 58.0 °F 46.3 °F 30.20 in West 1.1 mph   65% 0.00 in
10:01 58.6 °F 46.5 °F 30.20 in West 1.1 mph 1.1 mph 64% 0.00 in
10:06 59.2 °F 46.6 °F 30.20 in Calm     63% 0.00 in
10:11 59.7 °F 46.7 °F 30.20 in West 1.1 mph 1.1 mph 62% 0.00 in
10:16 60.1 °F 47.0 °F 30.19 in Calm     62% 0.00 in
10:21 60.6 °F 47.1 °F 30.19 in Calm     61% 0.00 in
10:26 61.2 °F 47.6 °F 30.19 in SW 1.1 mph   61% 0.00 in
10:31 62.0 °F 48.4 °F 30.19 in Calm   0.1 mph 61% 0.00 in
10:37 62.7 °F 46.8 °F 30.19 in ENE 2.3 mph 2.3 mph 56% 0.00 in
10:38 62.8 °F 47.3 °F 30.19 in ENE 2.3 mph 2.3 mph 57% 0.00 in
10:43 63.0 °F 47.5 °F 30.18 in Calm     57% 0.00 in
10:48 63.5 °F 47.0 °F 30.18 in Calm     55% 0.00 in
10:53 63.9 °F 47.4 °F 30.18 in Calm     55% 0.00 in
10:58 64.6 °F 47.1 °F 30.17 in SW 1.1 mph 1.1 mph 53% 0.00 in
11:03 65.1 °F 47.5 °F 30.17 in Calm     53% 0.00 in
11:08 65.7 °F 46.5 °F 30.17 in NW 1.1 mph 1.1 mph 50% 0.00 in
11:13 66.1 °F 45.8 °F 30.17 in Calm     48% 0.00 in
11:18 66.4 °F 46.7 °F 30.17 in NE 1.1 mph 1.1 mph 49% 0.00 in
11:23 66.7 °F 46.9 °F 30.17 in NE 1.1 mph 1.1 mph 49% 0.00 in
11:28 67.3 °F 46.9 °F 30.17 in Calm     48% 0.00 in
11:33 67.7 °F 46.2 °F 30.16 in WSW 1.1 mph 1.1 mph 46% 0.00 in
11:38 67.9 °F 46.9 °F 30.16 in SW 1.1 mph 1.1 mph 47% 0.00 in
11:43 67.8 °F 45.7 °F 30.16 in Calm     45% 0.00 in
11:48 68.4 °F 45.6 °F 30.16 in NNW 3.5 mph 3.5 mph 44% 0.00 in
11:53 68.8 °F 46.6 °F 30.16 in WSW 1.1 mph 1.1 mph 45% 0.00 in
11:58 69.4 °F 45.3 °F 30.16 in West 1.0 mph   42% 0.00 in
12:03 69.9 °F 45.8 °F 30.15 in South 1.1 mph 1.1 mph 42% 0.00 in
12:08 70.7 °F 45.8 °F 30.15 in North 1.1 mph 1.1 mph 41% 0.00 in
12:13 71.2 °F 46.9 °F 30.14 in West 1.1 mph 1.1 mph 42% 0.00 in
12:18 71.8 °F 46.8 °F 30.14 in NW 1.1 mph 1.1 mph 41% 0.00 in
12:23 72.2 °F 47.2 °F 30.14 in North 1.1 mph 1.1 mph 41% 0.00 in
12:28 72.3 °F 47.3 °F 30.13 in WNW 2.3 mph 2.3 mph 41% 0.00 in
12:33 72.6 °F 45.5 °F 30.13 in ENE 3.5 mph 3.5 mph 38% 0.00 in
12:38 72.5 °F 45.4 °F 30.12 in NNW 1.1 mph 1.1 mph 38% 0.00 in
12:43 72.9 °F 46.5 °F 30.12 in NW 1.1 mph 1.1 mph 39% 0.00 in
12:48 73.1 °F 46.0 °F 30.12 in North 1.1 mph 1.1 mph 38% 0.00 in
12:53 73.2 °F 45.4 °F 30.11 in Calm     37% 0.00 in
12:58 73.3 °F 46.8 °F 30.11 in Calm     39% 0.00 in
13:03 73.8 °F 46.6 °F 30.10 in SW 1.1 mph 1.1 mph 38% 0.00 in
13:08 74.0 °F 46.1 °F 30.10 in NW 1.1 mph   37% 0.00 in
13:13 74.5 °F 47.2 °F 30.10 in WNW 1.1 mph 1.1 mph 38% 0.00 in
13:18 75.1 °F 47.0 °F 30.09 in North 1.1 mph 1.1 mph 37% 0.00 in
13:23 75.2 °F 45.7 °F 30.09 in NNE 1.1 mph 1.1 mph 35% 0.00 in
13:28 75.1 °F 46.3 °F 30.08 in SW 1.1 mph 1.1 mph 36% 0.00 in
13:33 75.1 °F 45.6 °F 30.08 in WSW 1.1 mph   35% 0.00 in
13:38 75.4 °F 45.8 °F 30.08 in WNW 1.1 mph 1.1 mph 35% 0.00 in
13:43 75.8 °F 44.6 °F 30.08 in West 1.1 mph 1.1 mph 33% 0.00 in
13:48 76.0 °F 46.4 °F 30.08 in WSW 2.0 mph 2.0 mph 35% 0.00 in
13:53 76.0 °F 46.4 °F 30.08 in West 2.3 mph 2.3 mph 35% 0.00 in
13:58 76.2 °F 46.5 °F 30.07 in West 3.5 mph 3.5 mph 35% 0.00 in
14:03 76.0 °F 47.1 °F 30.07 in West 1.0 mph 1.0 mph 36% 0.00 in
14:08 76.3 °F 47.4 °F 30.07 in West 3.5 mph 3.5 mph 36% 0.00 in
14:13 76.7 °F 47.0 °F 30.07 in WSW 1.1 mph 1.1 mph 35% 0.00 in
14:18 76.8 °F 47.1 °F 30.06 in West 2.3 mph 2.3 mph 35% 0.00 in
14:23 76.4 °F 45.9 °F 30.06 in NNE 3.5 mph 3.5 mph 34% 0.00 in
14:28 76.3 °F 47.4 °F 30.06 in North 1.0 mph 1.0 mph 36% 0.00 in
14:33 76.4 °F 46.7 °F 30.06 in WSW 4.6 mph 4.6 mph 35% 0.00 in
14:38 76.1 °F 46.5 °F 30.06 in NNW 2.3 mph 2.3 mph 35% 0.00 in
14:43 76.3 °F 45.9 °F 30.06 in South 2.3 mph 2.3 mph 34% 0.00 in
14:48 76.8 °F 44.7 °F 30.06 in WNW 1.1 mph 1.2 mph 32% 0.00 in
14:53 76.9 °F 45.6 °F 30.06 in North 2.3 mph 2.3 mph 33% 0.00 in
14:58 76.7 °F 45.4 °F 30.06 in NW 3.5 mph 3.5 mph 33% 0.00 in
15:03 76.4 °F 44.4 °F 30.05 in SW 1.1 mph 1.1 mph 32% 0.00 in
15:08 76.2 °F 44.2 °F 30.05 in ENE 2.3 mph 2.3 mph 32% 0.00 in
15:13 76.4 °F 43.5 °F 30.05 in NNW 3.5 mph 3.5 mph 31% 0.00 in
15:18 76.4 °F 43.5 °F 30.05 in West 1.1 mph 1.1 mph 31% 0.00 in
15:24 76.4 °F 44.4 °F 30.05 in WNW 2.3 mph 2.3 mph 32% 0.00 in
15:29 76.3 °F 43.4 °F 30.05 in West 1.0 mph 1.0 mph 31% 0.00 in
15:34 76.6 °F 43.7 °F 30.05 in North 3.5 mph 3.5 mph 31% 0.00 in
15:39 77.0 °F 44.0 °F 30.05 in Calm     31% 0.00 in
15:44 77.1 °F 45.8 °F 30.05 in West 1.1 mph   33% 0.00 in
15:49 76.5 °F 45.2 °F 30.04 in NNW 2.3 mph 2.3 mph 33% 0.00 in
15:54 75.9 °F 45.5 °F 30.04 in NNW 3.5 mph 3.5 mph 34% 0.00 in
15:59 75.6 °F 45.2 °F 30.04 in Calm     34% 0.00 in
16:04 75.2 °F 44.9 °F 30.04 in NW 2.3 mph 2.3 mph 34% 0.00 in
16:09 74.8 °F 46.1 °F 30.04 in North 2.3 mph 2.3 mph 36% 0.00 in
16:14 74.5 °F 45.8 °F 30.03 in NNW 1.1 mph 1.1 mph 36% 0.00 in
16:19 74.0 °F 45.3 °F 30.03 in NNE 1.1 mph 1.1 mph 36% 0.00 in
16:24 73.7 °F 45.1 °F 30.03 in South 2.3 mph 2.3 mph 36% 0.00 in
16:29 73.4 °F 45.5 °F 30.03 in NW 2.3 mph 2.3 mph 37% 0.00 in
16:34 72.7 °F 44.9 °F 30.03 in West 2.3 mph   37% 0.00 in
16:39 72.2 °F 44.5 °F 30.02 in West 1.1 mph   37% 0.00 in
16:44 71.8 °F 44.8 °F 30.03 in Calm     38% 0.00 in
16:49 71.4 °F 43.8 °F 30.02 in NNW 2.3 mph 2.3 mph 37% 0.00 in
16:54 71.0 °F 43.4 °F 30.02 in NNW 1.1 mph   37% 0.00 in
16:59 70.7 °F 43.1 °F 30.02 in WSW 1.1 mph   37% 0.00 in
17:04 70.2 °F 42.7 °F 30.02 in Calm     37% 0.00 in
17:09 69.8 °F 42.3 °F 30.02 in Calm     37% 0.00 in
17:14 69.3 °F 42.6 °F 30.02 in Calm     38% 0.00 in
17:19 68.8 °F 42.1 °F 30.02 in Calm     38% 0.00 in
17:24 68.3 °F 42.4 °F 30.02 in Calm     39% 0.00 in
17:29 67.7 °F 41.8 °F 30.02 in Calm     39% 0.00 in
17:34 67.1 °F 42.0 °F 30.02 in Calm     40% 0.00 in
17:39 66.5 °F 42.1 °F 30.02 in Calm     41% 0.00 in
17:44 65.6 °F 43.1 °F 30.02 in Calm     44% 0.00 in
17:49 64.7 °F 42.9 °F 30.02 in Calm     45% 0.00 in
17:54 63.7 °F 42.5 °F 30.02 in Calm     46% 0.00 in
17:59 62.8 °F 42.3 °F 30.02 in Calm     47% 0.00 in
18:04 62.1 °F 42.7 °F 30.01 in Calm     49% 0.00 in
18:09 61.4 °F 42.6 °F 30.02 in Calm     50% 0.00 in
18:15 61.2 °F 42.9 °F 30.02 in Calm     51% 0.00 in
18:20 60.8 °F 42.5 °F 30.02 in Calm     51% 0.00 in
18:25 60.2 °F 42.5 °F 30.02 in Calm     52% 0.00 in
18:30 59.5 °F 42.3 °F 30.02 in Calm     53% 0.00 in
18:35 59.0 °F 42.8 °F 30.02 in Calm     55% 0.00 in
18:40 58.4 °F 42.3 °F 30.02 in Calm     55% 0.00 in
18:45 58.0 °F 42.4 °F 30.02 in Calm     56% 0.00 in
18:50 57.9 °F 42.8 °F 30.02 in Calm     57% 0.00 in
18:55 57.8 °F 43.1 °F 30.03 in Calm     58% 0.00 in
19:00 57.5 °F 42.8 °F 30.03 in Calm     58% 0.00 in
19:05 57.3 °F 43.1 °F 30.03 in Calm     59% 0.00 in
19:10 57.1 °F 43.3 °F 30.03 in Calm     60% 0.00 in
19:15 56.7 °F 43.8 °F 30.03 in Calm     62% 0.00 in
19:20 56.2 °F 43.8 °F 30.03 in Calm     63% 0.00 in
19:25 55.9 °F 43.5 °F 30.03 in Calm     63% 0.00 in
19:30 56.3 °F 43.9 °F 30.03 in Calm     63% 0.00 in
19:35 56.2 °F 43.8 °F 30.03 in Calm     63% 0.00 in
19:40 55.8 °F 43.8 °F 30.03 in Calm     64% 0.00 in
19:45 55.4 °F 43.4 °F 30.03 in Calm     64% 0.00 in
19:50 54.9 °F 43.7 °F 30.03 in Calm     66% 0.00 in
19:55 54.5 °F 43.4 °F 30.03 in Calm     66% 0.00 in
20:00 54.1 °F 43.8 °F 30.03 in Calm     68% 0.00 in
20:05 53.9 °F 43.6 °F 30.03 in Calm     68% 0.00 in
20:10 53.7 °F 43.8 °F 30.03 in Calm     69% 0.00 in
20:15 53.6 °F 44.0 °F 30.03 in Calm     70% 0.00 in
20:20 53.4 °F 44.2 °F 30.03 in Calm     71% 0.00 in
20:25 53.2 °F 44.0 °F 30.03 in Calm     71% 0.00 in
20:30 52.8 °F 44.0 °F 30.03 in Calm     72% 0.00 in
20:35 52.6 °F 43.8 °F 30.03 in Calm     72% 0.00 in
20:40 52.4 °F 44.0 °F 30.03 in Calm     73% 0.00 in
20:45 52.4 °F 44.0 °F 30.03 in Calm     73% 0.00 in
20:46 52.3 °F 43.9 °F 30.03 in Calm     73% 0.00 in
20:51 52.3 °F 44.3 °F 30.03 in Calm     74% 0.00 in
20:56 52.6 °F 44.5 °F 30.03 in Calm     74% 0.00 in
21:00 52.6 °F 44.2 °F 30.03 in Calm     73% 0.00 in
21:01 52.5 °F 44.1 °F 30.03 in Calm     73% 0.00 in
21:06 52.2 °F 43.8 °F 30.03 in Calm     73% 0.00 in
21:11 51.8 °F 43.8 °F 30.03 in Calm     74% 0.00 in
21:16 51.7 °F 44.0 °F 30.03 in Calm     75% 0.00 in
21:21 51.7 °F 44.0 °F 30.02 in Calm     75% 0.00 in
21:26 51.5 °F 43.8 °F 30.02 in Calm     75% 0.00 in
21:31 51.4 °F 43.7 °F 30.02 in Calm     75% 0.00 in
21:36 51.3 °F 44.0 °F 30.02 in Calm     76% 0.00 in
21:41 51.3 °F 44.0 °F 30.02 in Calm     76% 0.00 in
21:46 51.1 °F 43.8 °F 30.02 in Calm     76% 0.00 in
21:51 51.3 °F 44.0 °F 30.01 in Calm     76% 0.00 in
21:56 51.7 °F 43.7 °F 30.01 in Calm     74% 0.00 in
22:01 52.1 °F 43.7 °F 30.01 in Calm     73% 0.00 in
22:06 52.1 °F 43.7 °F 30.01 in Calm     73% 0.00 in
22:11 52.1 °F 43.7 °F 30.01 in Calm     73% 0.00 in
22:16 52.1 °F 43.3 °F 30.01 in Calm     72% 0.00 in
22:21 52.0 °F 43.3 °F 30.01 in Calm     72% 0.00 in
22:26 51.8 °F 43.1 °F 30.01 in Calm     72% 0.00 in
22:31 51.5 °F 42.8 °F 30.00 in Calm     72% 0.00 in
22:36 51.3 °F 42.6 °F 30.00 in Calm     72% 0.00 in
22:41 51.2 °F 42.5 °F 30.01 in Calm     72% 0.00 in
22:46 51.2 °F 42.8 °F 30.00 in Calm     73% 0.00 in
22:51 51.4 °F 42.7 °F 30.00 in Calm     72% 0.00 in
22:56 51.3 °F 42.6 °F 30.00 in Calm     72% 0.00 in
23:01 51.0 °F 42.6 °F 30.00 in Calm     73% 0.00 in
23:06 50.7 °F 42.4 °F 30.00 in Calm     73% 0.00 in
23:11 50.6 °F 42.3 °F 30.00 in Calm     73% 0.00 in
23:16 50.7 °F 42.4 °F 30.00 in Calm     73% 0.00 in
23:21 50.5 °F 42.5 °F 30.00 in Calm     74% 0.00 in
23:26 50.4 °F 42.4 °F 30.00 in Calm     74% 0.00 in
23:31 50.0 °F 42.0 °F 30.00 in Calm     74% 0.00 in
23:36 49.6 °F 42.0 °F 30.00 in Calm     75% 0.00 in
23:41 49.3 °F 42.1 °F 30.01 in Calm     76% 0.00 in
23:46 49.1 °F 42.2 °F 30.01 in Calm     77% 0.00 in
23:51 48.9 °F 42.0 °F 30.01 in Calm     77% 0.00 in
23:56 49.1 °F 41.9 °F 30.01 in Calm     76% 0.00 in
Compliments of Weather Underground